createdAt,value
2023-03-25T00:04:27.167Z,99323.53
2023-03-25T00:09:28.682Z,99324.38
2023-03-25T00:14:29.524Z,99312.19
2023-03-25T00:19:32.075Z,99319.34
2023-03-25T00:24:32.712Z,99312.66
2023-03-25T00:29:33.567Z,99298.59
2023-03-25T00:34:41.664Z,99290.03
2023-03-25T00:39:42.327Z,99289.03
2023-03-25T00:44:43.493Z,99287.56
2023-03-25T00:49:45.464Z,99295.53
2023-03-25T00:54:46.567Z,99287.16
2023-03-25T00:59:47.266Z,99292.59
2023-03-25T01:04:50.963Z,99290.53
2023-03-25T01:09:51.769Z,99290.78
2023-03-25T01:14:53.353Z,99286.50
2023-03-25T01:19:55.662Z,99278.25
2023-03-25T01:24:56.405Z,99265.16
2023-03-25T01:29:57.188Z,99263.41
2023-03-25T01:34:59.154Z,99259.28
2023-03-25T01:39:59.811Z,99253.06
2023-03-25T01:45:21.828Z,99245.47
2023-03-25T01:50:23.839Z,99243.25
2023-03-25T01:55:27.382Z,99238.00
2023-03-25T02:00:28.222Z,99220.19
2023-03-25T02:05:37.424Z,99223.66
2023-03-25T02:10:38.500Z,99217.47
2023-03-25T02:15:52.217Z,99237.84
2023-03-25T02:21:31.060Z,99232.91
2023-03-25T02:26:56.024Z,99227.63
2023-03-25T02:32:13.252Z,99225.09
2023-03-25T02:37:40.379Z,99218.94
2023-03-25T02:42:49.772Z,99222.41
2023-03-25T02:47:53.838Z,99206.28
2023-03-25T02:52:58.186Z,99196.56
2023-03-25T02:58:03.948Z,99206.63
2023-03-25T03:03:07.940Z,99205.28
2023-03-25T03:08:25.136Z,99209.94
2023-03-25T03:13:38.928Z,99207.97
2023-03-25T03:18:46.264Z,99215.09
2023-03-25T03:23:56.596Z,99210.19
2023-03-25T03:29:08.497Z,99206.56
2023-03-25T03:34:14.738Z,99208.69
2023-03-25T03:39:20.762Z,99212.56
2023-03-25T03:44:30.984Z,99209.56
2023-03-25T03:49:38.287Z,99222.03
2023-03-25T03:54:44.988Z,99221.78
2023-03-25T03:59:57.604Z,99222.41
2023-03-25T04:05:00.681Z,99229.53
2023-03-25T04:10:08.449Z,99239.38
2023-03-25T04:15:11.728Z,99231.66
2023-03-25T04:20:16.125Z,99237.41
2023-03-25T04:25:16.780Z,99237.75
2023-03-25T04:30:19.195Z,99234.16
2023-03-25T04:35:21.156Z,99236.28
2023-03-25T04:40:22.029Z,99239.47
2023-03-25T04:45:25.342Z,99235.16
2023-03-25T04:50:28.328Z,99240.56
2023-03-25T04:55:30.054Z,99244.72
2023-03-25T05:00:32.043Z,99229.16
2023-03-25T05:05:32.730Z,99242.63
2023-03-25T05:10:34.412Z,99236.56
2023-03-25T05:15:39.564Z,99239.88
2023-03-25T05:20:42.556Z,99244.44
2023-03-25T05:25:43.871Z,99249.66
2023-03-25T05:30:47.269Z,99253.91
2023-03-25T05:35:48.131Z,99252.13
2023-03-25T05:40:49.747Z,99252.13
2023-03-25T05:45:51.970Z,99248.13
2023-03-25T05:50:56.550Z,99253.50
2023-03-25T05:55:57.604Z,99253.63
2023-03-25T06:01:03.084Z,99262.69
2023-03-25T06:06:05.530Z,99268.34
2023-03-25T06:11:06.928Z,99268.03
2023-03-25T06:16:09.967Z,99275.19
2023-03-25T06:21:11.460Z,99285.84
2023-03-25T06:26:12.147Z,99289.69
2023-03-25T06:31:16.978Z,99292.47
2023-03-25T06:36:20.360Z,99300.25
2023-03-25T06:41:21.906Z,99287.75
2023-03-25T06:46:31.896Z,99295.25
2023-03-25T06:51:44.497Z,99290.97
2023-03-25T06:56:45.168Z,99300.81
2023-03-25T07:01:47.149Z,99302.75
2023-03-25T07:06:47.880Z,99303.63
2023-03-25T07:11:48.901Z,99303.47
2023-03-25T07:16:51.020Z,99300.38
2023-03-25T07:21:51.751Z,99314.13
2023-03-25T07:26:52.397Z,99302.34
2023-03-25T07:31:58.269Z,99305.06
2023-03-25T07:36:59.533Z,99310.13
2023-03-25T07:42:00.176Z,99302.72
2023-03-25T07:47:37.475Z,99313.59
2023-03-25T07:52:38.235Z,99326.69
2023-03-25T07:57:43.469Z,99328.69
2023-03-25T08:02:45.759Z,99341.78
2023-03-25T08:07:48.703Z,99345.50
2023-03-25T08:12:53.415Z,99347.16
2023-03-25T08:17:55.481Z,99360.88
2023-03-25T08:22:58.458Z,99342.00
2023-03-25T08:27:59.113Z,99345.47
2023-03-25T08:33:01.279Z,99358.38
2023-03-25T08:38:05.198Z,99361.53
2023-03-25T08:43:07.454Z,99375.06
2023-03-25T08:48:09.589Z,99388.16
2023-03-25T08:53:10.373Z,99392.13
2023-03-25T08:58:11.140Z,99413.22
2023-03-25T09:03:13.288Z,99417.28
2023-03-25T09:08:14.212Z,99418.19
2023-03-25T09:13:14.947Z,99420.16
2023-03-25T09:18:17.406Z,99427.22
2023-03-25T09:23:18.498Z,99437.53
2023-03-25T09:28:19.165Z,99455.63
2023-03-25T09:33:21.180Z,99438.56
2023-03-25T09:38:22.334Z,99422.69
2023-03-25T09:43:35.270Z,99415.84
2023-03-25T09:48:39.068Z,99422.53
2023-03-25T09:53:45.664Z,99422.47
2023-03-25T09:58:48.090Z,99426.38
2023-03-25T10:03:59.658Z,99413.66
2023-03-25T10:09:21.343Z,99407.00
2023-03-25T10:14:28.462Z,99406.44
2023-03-25T10:19:51.030Z,99390.72
2023-03-25T10:24:55.656Z,99381.41
2023-03-25T10:30:02.108Z,99377.38
2023-03-25T10:35:07.978Z,99366.28
2023-03-25T10:40:19.684Z,99364.66
2023-03-25T10:45:24.494Z,99358.25
2023-03-25T10:50:27.177Z,99346.03
2023-03-25T10:55:32.945Z,99338.47
2023-03-25T11:00:34.219Z,99331.72
2023-03-25T11:05:36.525Z,99306.00
2023-03-25T11:10:37.655Z,99325.28
2023-03-25T11:15:40.436Z,99324.31
2023-03-25T11:20:48.999Z,99323.84
2023-03-25T11:25:49.949Z,99318.25
2023-03-25T11:31:24.705Z,99313.63
2023-03-25T11:36:29.947Z,99332.66
2023-03-25T11:41:33.909Z,99364.75
2023-03-25T11:46:42.643Z,99352.78
2023-03-25T11:51:44.856Z,99315.66
2023-03-25T11:56:49.731Z,99306.75
2023-03-25T12:01:52.736Z,99295.50
2023-03-25T12:06:57.886Z,99268.63
2023-03-25T12:12:23.109Z,99273.19
2023-03-25T12:17:38.370Z,99258.34
2023-03-25T12:22:54.594Z,99258.53
2023-03-25T12:28:09.866Z,99246.16
2023-03-25T12:33:28.210Z,99239.22
2023-03-25T12:38:42.984Z,99231.41
2023-03-25T12:44:02.333Z,99233.78
2023-03-25T12:49:16.912Z,99219.91
2023-03-25T12:54:32.137Z,99248.72
2023-03-25T13:00:08.071Z,99249.16
2023-03-25T13:05:18.908Z,99240.06
2023-03-25T13:10:22.710Z,99246.38
2023-03-25T13:15:27.558Z,99243.28
2023-03-25T13:20:32.852Z,99252.69
2023-03-25T13:25:43.370Z,99227.06
2023-03-25T13:30:47.717Z,99205.38
2023-03-25T13:35:54.649Z,99197.63
2023-03-25T13:41:09.511Z,99189.97
2023-03-25T13:46:13.471Z,99196.13
2023-03-25T13:51:14.188Z,99182.56
2023-03-25T13:56:47.881Z,99181.56
2023-03-25T14:02:11.436Z,99169.09
2023-03-25T14:07:49.185Z,99180.69
2023-03-25T14:12:56.501Z,99177.22
2023-03-25T14:17:58.009Z,99177.72
2023-03-25T14:23:02.978Z,99182.72
2023-03-25T14:28:05.985Z,99170.63
2023-03-25T14:33:06.673Z,99150.44
2023-03-25T14:38:53.122Z,99168.06
2023-03-25T14:44:12.213Z,99258.66
2023-03-25T14:49:21.151Z,99302.91
2023-03-25T14:54:30.642Z,99304.13
2023-03-25T14:59:36.944Z,99282.31
2023-03-25T15:04:40.170Z,99289.91
2023-03-25T15:09:50.961Z,99283.66
2023-03-25T15:14:57.321Z,99254.19
2023-03-25T15:20:28.952Z,99250.28
2023-03-25T15:25:30.030Z,99263.94
2023-03-25T15:31:10.349Z,99257.47
2023-03-25T15:36:31.150Z,99254.25
2023-03-25T15:42:13.145Z,99248.47
2023-03-25T15:47:45.308Z,99249.66
2023-03-25T15:53:41.480Z,99245.75
2023-03-25T15:58:52.963Z,99238.78
2023-03-25T16:04:01.190Z,99255.69
2023-03-25T16:09:02.949Z,99277.50
2023-03-25T16:14:06.660Z,99271.09
2023-03-25T16:19:12.866Z,99262.13
2023-03-25T16:24:14.289Z,99274.41
2023-03-25T16:29:20.360Z,99270.03
2023-03-25T16:34:22.565Z,99270.03
2023-03-25T16:39:26.010Z,99261.38
2023-03-25T16:44:27.142Z,99266.69
2023-03-25T16:49:32.808Z,99264.53
2023-03-25T16:54:37.742Z,99274.44
2023-03-25T16:59:39.150Z,99279.50
2023-03-25T17:04:42.163Z,99273.81
2023-03-25T17:09:44.896Z,99270.09
2023-03-25T17:14:48.313Z,99268.72
2023-03-25T17:19:53.246Z,99272.47
2023-03-25T17:24:56.442Z,99263.56
2023-03-25T17:29:59.939Z,99278.38
2023-03-25T17:35:06.791Z,99281.31
2023-03-25T17:40:11.666Z,99283.34
2023-03-25T17:45:15.121Z,99291.81
2023-03-25T17:50:19.127Z,99289.50
2023-03-25T17:55:19.763Z,99290.28
2023-03-25T18:00:22.038Z,99286.06
2023-03-25T18:05:24.305Z,99280.69
2023-03-25T18:10:26.771Z,99280.69
2023-03-25T18:15:28.330Z,99290.50
2023-03-25T18:20:32.789Z,99287.81
2023-03-25T18:25:34.119Z,99307.38
2023-03-25T18:30:40.594Z,99310.63
2023-03-25T18:35:42.923Z,99321.41
2023-03-25T18:40:43.662Z,99327.69
2023-03-25T18:45:44.846Z,99331.03
2023-03-25T18:50:52.581Z,99325.38
2023-03-25T18:55:54.635Z,99336.66
2023-03-25T19:00:56.109Z,99330.53
2023-03-25T19:06:00.100Z,99326.31
2023-03-25T19:11:08.400Z,99329.63
2023-03-25T19:16:21.024Z,99336.28
2023-03-25T19:21:23.591Z,99326.53
2023-03-25T19:26:24.287Z,99318.78
2023-03-25T19:31:25.475Z,99319.56
2023-03-25T19:36:27.526Z,99320.41
2023-03-25T19:41:28.247Z,99326.06
2023-03-25T19:46:31.627Z,99340.47
2023-03-25T19:51:33.856Z,99358.69
2023-03-25T19:56:34.604Z,99374.88
2023-03-25T20:01:36.363Z,99368.59
2023-03-25T20:06:38.699Z,99361.78
2023-03-25T20:11:39.900Z,99303.16
2023-03-25T20:16:40.826Z,99299.63
2023-03-25T20:21:42.978Z,99316.75
2023-03-25T20:26:43.650Z,99318.66
2023-03-25T20:31:44.589Z,99316.59
2023-03-25T20:36:46.743Z,99330.28
2023-03-25T20:41:47.524Z,99321.69
2023-03-25T20:46:49.790Z,99320.75
2023-03-25T20:51:54.279Z,99310.16
2023-03-25T20:56:55.242Z,99303.41
2023-03-25T21:01:56.078Z,99293.38
2023-03-25T21:06:58.257Z,99290.06
2023-03-25T21:11:58.938Z,99313.56
2023-03-25T21:16:59.676Z,99302.75
2023-03-25T21:22:01.692Z,99294.03
2023-03-25T21:27:02.707Z,99311.03
2023-03-25T21:32:03.449Z,99309.50
2023-03-25T21:37:05.514Z,99316.38
2023-03-25T21:42:09.817Z,99307.09
2023-03-25T21:47:11.974Z,99304.31
2023-03-25T21:52:14.041Z,99299.84
2023-03-25T21:57:14.810Z,99299.06
2023-03-25T22:02:17.135Z,99298.06
2023-03-25T22:07:19.146Z,99308.88
2023-03-25T22:12:19.938Z,99305.72
2023-03-25T22:17:20.612Z,99302.38
2023-03-25T22:22:23.154Z,99297.03
2023-03-25T22:27:24.038Z,99296.94
2023-03-25T22:32:27.298Z,99303.94
2023-03-25T22:37:29.974Z,99297.22
2023-03-25T22:42:31.285Z,99293.63
2023-03-25T22:47:31.969Z,99299.66
2023-03-25T22:52:33.978Z,99299.66
2023-03-25T22:57:36.089Z,99297.03
2023-03-25T23:02:37.113Z,99301.38
2023-03-25T23:07:39.167Z,99291.22
2023-03-25T23:12:39.846Z,99291.31
2023-03-25T23:17:40.600Z,99290.81
2023-03-25T23:22:42.613Z,99304.03
2023-03-25T23:27:45.040Z,99300.28
2023-03-25T23:32:45.731Z,99302.28
2023-03-25T23:37:50.245Z,99301.09
2023-03-25T23:42:51.669Z,99302.44
2023-03-25T23:47:52.428Z,99304.41
2023-03-25T23:52:55.981Z,99304.78
2023-03-25T23:57:56.687Z,99320.19
